ADDS TAF Data INFO
IDs: Format: Raw Decoded Include METARs

Data at: 2033 UTC 23 May 2017

Region: TOP
KATL 231944Z 2320/2424 21006KT P6SM VCSH SCT025 BKN045
  TEMPO 2320/2324 BKN025
  FM240000 20005KT P6SM VCSH SCT025 BKN040
  FM240600 21005KT P6SM OVC006
  FM241200 21008KT 6SM -SHRA OVC006
  TEMPO 2414/2417 VRB15G25KT 4SM -TSRA BKN008CB
  FM241700 23015G25KT P6SM VCSH BKN025


KBOS 231721Z 2318/2424 10009KT P6SM BKN250
  FM240200 15005KT P6SM BKN250
  FM241000 07004KT P6SM OVC060
  FM241200 07007KT P6SM BKN020
  FM241600 07007KT P6SM BKN040
  FM242200 06007KT P6SM SCT090


KBWI 231744Z 2318/2424 07008KT P6SM BKN025 OVC060
  FM240100 08007KT P6SM -RA OVC025
  FM240700 03004KT P6SM OVC025
  FM241300 04004KT P6SM OVC040
  FM241700 11006KT P6SM BKN050


KCLE 231920Z 2319/2424 04008KT P6SM BKN200
  FM240300 14005KT P6SM BKN200
  FM241400 14010KT P6SM VCSH BKN040 OVC070
  FM242300 10012KT 6SM -SHRA VCTS BKN025CB OVC060


KCLT 231916Z 2319/2418 13004KT 6SM -SHRA SCT008 BKN020 OVC050
  FM232200 VRB02KT 4SM -SHRA BR OVC008
  FM240500 20003KT 3SM BR OVC003
  FM241400 14006KT P6SM OVC008
  PROB30 2415/2418 3SM -TSRA OVC010CB


KCVG 231734Z 2318/2424 11005KT P6SM FEW100 BKN250
  FM241000 12003KT P6SM VCSH OVC080
  FM241300 14004KT P6SM -SHRA OVC040
  FM241600 16007KT 5SM -SHRA OVC025
  FM242000 21006KT P6SM VCSH BKN018


KDCA 231744Z 2318/2418 09010KT P6SM -SHRA OVC025
  FM232000 09008KT P6SM -RA OVC015
  FM240300 05006KT P6SM -RA OVC025
  FM240600 02005KT P6SM OVC030
  FM241300 04004KT P6SM OVC060
  FM241500 10005KT P6SM OVC050


KDEN 231739Z 2318/2424 36015G22KT P6SM BKN080 BKN200
  FM240100 02010KT P6SM SCT080
  FM240300 10005KT P6SM SCT120
  FM240600 20008KT P6SM FEW120 SCT200
  FM241700 26010KT P6SM FEW090 SCT120
  FM242000 33011KT P6SM SCT090 SCT120


KDFW 231952Z 2320/2424 33015KT P6SM VCSH SCT035 BKN060
  TEMPO 2320/2324 5SM -SHRA BKN035
  FM240100 34015KT P6SM SCT050 BKN100
  FM240300 32010KT P6SM SCT250
  FM241500 34016KT P6SM SCT250


KDTW 231727Z 2318/2424 19006KT P6SM BKN100
  FM232100 15006KT P6SM OVC100
  FM240200 06004KT P6SM OVC100
  FM241100 10007KT 6SM -SHRA HZ BKN030 OVC060


KEWR 231932Z 2320/2424 15005KT P6SM BKN150
  FM240300 VRB04KT P6SM BKN120
  FM240700 03006KT 5SM -RA BKN025 OVC100
  FM241200 02009G15KT P6SM BKN070 BKN100
  FM241500 02009KT P6SM OVC100
  FM241800 02008KT P6SM OVC050


KFLL 231744Z 2318/2418 16014G20KT P6SM SCT040 BKN250
  FM240000 17008KT P6SM SCT030 BKN250
  FM241400 20017G26KT P6SM BKN050


KIAD 231744Z 2318/2424 09007KT P6SM -SHRA OVC040
  FM232000 08007KT P6SM -RA OVC025
  FM240400 07006KT 5SM BR OVC025
  FM240800 VRB03KT 5SM BR OVC015
  FM241300 VRB03KT P6SM OVC035
  FM241900 13007KT P6SM BKN045


KIAH 231724Z 2318/2424 33007KT P6SM SCT035
  FM232100 33006KT P6SM VCSH SCT035 BKN050
  FM240100 34007KT 6SM -TSRA BKN035CB
  TEMPO 2401/2403 VRB15G35KT 3SM TSRA BR BKN015CB
  FM240300 34010KT P6SM FEW020 BKN050
  FM240600 32008KT P6SM SCT250


KJFK 231932Z 2320/2424 19008KT P6SM BKN150
  FM240300 VRB04KT P6SM BKN120
  FM240700 03008KT 5SM -RA BKN040 OVC100
  FM241200 05010G17KT 5SM -RA OVC025
  FM241500 02009KT P6SM -SHRA BKN040 OVC100
  FM241800 36010KT P6SM OVC050


KLAS 231726Z 2318/2418 06007KT P6SM SKC
  FM232000 11006KT P6SM SKC
  FM240400 22007KT P6SM SKC
  FM241400 VRB06KT P6SM SKC


KLAX 232025Z 2320/2424 27016KT 3SM BR BKN006
  FM232100 27012KT P6SM SCT006
  FM240200 27008KT P6SM OVC008
  FM240600 VRB03KT P6SM OVC007
  FM241700 25006KT P6SM SCT010
  FM242000 25012KT P6SM SKC


KLGA 231932Z 2320/2418 17007KT P6SM BKN150
  FM240300 VRB04KT P6SM BKN120
  FM240700 03009KT 5SM -RA BKN040 OVC100
  FM241200 05010G17KT 5SM -RA BKN025 OVC100
  FM241500 02009KT P6SM -SHRA BKN050 OVC100


KMCO 231725Z 2318/2418 21013G22KT P6SM VCTS SCT040CB SCT120 BKN250
  FM232300 22011KT P6SM SCT040 BKN250
  FM241400 21015G23KT P6SM VCTS SCT020 SCT035CB BKN060
  TEMPO 2414/2417 VRB15G30KT 2SM TSRA BKN015 BKN025CB


KMDW 231740Z 2318/2418 20006KT P6SM -SHRA SCT030 OVC060
  FM232100 13006KT 5SM -SHRA VCTS BKN035CB OVC050
  TEMPO 2322/2401 3SM SHRA SCT010 OVC025
  FM240100 07006KT 6SM -SHRA SCT020 OVC050
  FM240300 05005KT 5SM -SHRA SCT010 OVC020
  FM240600 03007KT 4SM BR SCT003 OVC008


KMEM 231732Z 2318/2418 22006KT P6SM OVC070
  FM232300 28005KT P6SM VCTS OVC090CB
  FM240400 31004KT P6SM VCTS BKN035CB OVC080
  FM240800 33005KT P6SM VCTS OVC015CB
  FM241400 30010KT P6SM OVC015


KMIA 231744Z 2318/2418 16014G20KT P6SM SCT040 BKN250
  FM240000 17008KT P6SM SCT030 BKN250
  FM241400 20017G26KT P6SM BKN050


KMSP 231815Z 2318/2424 04008KT P6SM VCSH SCT020 BKN040 OVC080
  FM240200 02006KT P6SM BKN070
  FM240900 01006KT P6SM SCT015 BKN025
  FM241700 03005KT P6SM SCT045


KORD 231949Z 2320/2424 19006KT 5SM -SHRA VCTS BKN035CB OVC050
  TEMPO 2321/2401 14005KT 3SM SHRA SCT010 OVC025
  FM240100 07006KT 6SM -SHRA SCT020 OVC050
  FM240300 05005KT 5SM -SHRA SCT010 OVC020
  FM240600 03007KT 4SM BR VCSH SCT003 OVC008
  FM241900 02012G20KT P6SM OVC020


KPDX 231746Z 2318/2418 33008KT P6SM SKC
  FM232300 32016G23KT P6SM FEW025
  FM240400 32015G24KT P6SM SCT025
  FM240900 29006KT P6SM BKN015


KPHL 231913Z 2319/2424 09006KT P6SM FEW030 OVC100
  TEMPO 2319/2321 -SHRA
  FM232100 11005KT P6SM OVC110
  TEMPO 2404/2408 6SM -SHRA OVC045
  FM241700 06007KT P6SM SCT050
  FM242200 10007KT P6SM BKN120


KPHX 231720Z 2318/2418 VRB04KT P6SM SKC
  FM232000 28007KT P6SM SKC
  FM240800 10006KT P6SM SKC


KPIT 231720Z 2318/2424 15010KT P6SM SCT200
  FM241200 12004KT P6SM VCSH BKN025
  FM241600 13007KT P6SM VCSH BKN035


KSAN 231832Z 2319/2424 30011KT P6SM FEW011 SCT200
  TEMPO 2319/2323 BKN010
  FM240230 VRB05KT P6SM SCT010
  FM240400 VRB04KT P6SM OVC009
  FM241700 VRB04KT P6SM SCT012 SCT200
  FM241900 28010KT P6SM SCT010 SCT200


KSEA 231736Z 2318/2424 VRB04KT P6SM SKC
  FM232200 23008KT P6SM SKC
  FM240000 24015G25KT P6SM SKC
  FM240200 03010KT P6SM SCT025
  FM240400 03010KT P6SM BKN025
  FM240700 10005KT P6SM SCT025


KSFO 231730Z 2318/2424 32010KT P6SM SCT009
  FM232000 30016KT P6SM FEW010
  FM240400 29014KT P6SM SCT008
  FM241000 28008KT P6SM OVC008
  FM241700 27010KT P6SM SCT011


KSLC 231722Z 2318/2424 32008KT P6SM SKC
  FM240300 15007KT P6SM SKC
  FM241600 17014G22KT P6SM SKC
  FM242100 23011KT P6SM FEW080 SCT120


KSTL 231722Z 2318/2424 34005KT P6SM VCSH SCT025 BKN050
  FM232000 32008KT P6SM VCTS OVC025CB
  FM232200 32007KT P6SM VCSH BKN030
  FM240100 32006KT P6SM BKN050
  FM241200 30006KT P6SM BKN025


KTPA 231732Z 2318/2418 21017G24KT P6SM FEW020 SCT035 BKN050
  FM232100 21016G25KT P6SM SCT050 SCT120 BKN200
  FM240100 22012KT P6SM SCT025 SCT050 BKN200
  FM240900 20014G23KT P6SM VCTS SCT030CB BKN050
  FM241500 21018G26KT 5SM -RA VCTS SCT030CB OVC050



Page loaded:  20:33 UTC  |   01:33 PM Pacific  |   02:33 PM Mountain  |   03:33 PM Central  |   04:33 PM Eastern

 

ADVISORIES

FORECASTS

FORECASTS

OBSERVATIONS

USER TOOLS

ABOUT US